Burnham, Illinois
Current Conditions -  °F | °C
As of 2:35 AM on Saturday 29 Nov 2014 (Local Time) from KGYY Reporting Station
Clear Clear  
Wind Chill: 27°   Ceiling: Unl
Heat Index: 34°   Visibility: 10mi
Dew Point: 27°   Wind: 8mph
Humidity: 75%   Direction: 160°SSE
Pressure: 29.85"   Gusts: 16mph
Location:  41.6563°N, 87.5444°W
Report Text: KGYY 290835Z AUTO 16007G14KT 10SM CLR 01/M03 A2985 RMK AO2 T00111028
Loading
Personal Weather Stations






























Interactive Weather Map New forecast layout! Learn more

10-Day Weather Forecast

Advertisements
Track Severe Weather on mobile